sensor_id;sensor_type;location;lat;lon;timestamp;temperature;humidity
3758;DHT22;1894;51.038;13.692;2023-06-05T00:00:44;12.10;99.50
3758;DHT22;1894;51.038;13.692;2023-06-05T00:03:11;12.10;99.90
3758;DHT22;1894;51.038;13.692;2023-06-05T00:05:39;12.00;99.90
3758;DHT22;1894;51.038;13.692;2023-06-05T00:08:06;12.00;99.90
3758;DHT22;1894;51.038;13.692;2023-06-05T00:10:33;11.90;99.90
3758;DHT22;1894;51.038;13.692;2023-06-05T00:13:00;11.90;99.90
3758;DHT22;1894;51.038;13.692;2023-06-05T00:15:27;11.90;99.90
3758;DHT22;1894;51.038;13.692;2023-06-05T00:17:54;11.80;99.90
3758;DHT22;1894;51.038;13.692;2023-06-05T00:20:22;11.80;99.90
3758;DHT22;1894;51.038;13.692;2023-06-05T00:22:49;11.70;99.90
3758;DHT22;1894;51.038;13.692;2023-06-05T00:25:16;11.70;99.90
3758;DHT22;1894;51.038;13.692;2023-06-05T00:27:43;11.70;99.90
3758;DHT22;1894;51.038;13.692;2023-06-05T00:30:12;11.60;99.90
3758;DHT22;1894;51.038;13.692;2023-06-05T00:32:40;11.60;99.90
3758;DHT22;1894;51.038;13.692;2023-06-05T00:35:08;11.60;99.90
3758;DHT22;1894;51.038;13.692;2023-06-05T00:37:35;11.50;99.90
3758;DHT22;1894;51.038;13.692;2023-06-05T00:40:05;11.50;99.90
3758;DHT22;1894;51.038;13.692;2023-06-05T00:42:34;11.30;99.90
3758;DHT22;1894;51.038;13.692;2023-06-05T00:45:01;11.20;99.90
3758;DHT22;1894;51.038;13.692;2023-06-05T00:47:28;11.20;99.90
3758;DHT22;1894;51.038;13.692;2023-06-05T00:49:56;11.10;99.90
3758;DHT22;1894;51.038;13.692;2023-06-05T00:52:23;11.10;99.90
3758;DHT22;1894;51.038;13.692;2023-06-05T00:54:51;11.10;99.90
3758;DHT22;1894;51.038;13.692;2023-06-05T00:57:19;10.90;99.90
3758;DHT22;1894;51.038;13.692;2023-06-05T00:59:48;10.90;99.90
3758;DHT22;1894;51.038;13.692;2023-06-05T01:02:16;11.00;99.90
3758;DHT22;1894;51.038;13.692;2023-06-05T01:04:43;11.10;99.90
3758;DHT22;1894;51.038;13.692;2023-06-05T01:07:11;11.10;99.90
3758;DHT22;1894;51.038;13.692;2023-06-05T01:09:38;11.00;99.90
3758;DHT22;1894;51.038;13.692;2023-06-05T01:12:14;10.90;99.90
3758;DHT22;1894;51.038;13.692;2023-06-05T01:14:45;10.90;99.90
3758;DHT22;1894;51.038;13.692;2023-06-05T01:17:16;10.90;99.90
3758;DHT22;1894;51.038;13.692;2023-06-05T01:19:47;10.70;99.90
3758;DHT22;1894;51.038;13.692;2023-06-05T01:22:16;10.60;99.90
3758;DHT22;1894;51.038;13.692;2023-06-05T01:24:43;10.50;99.90
3758;DHT22;1894;51.038;13.692;2023-06-05T01:33:05;10.20;99.90
3758;DHT22;1894;51.038;13.692;2023-06-05T01:35:34;10.10;99.90
3758;DHT22;1894;51.038;13.692;2023-06-05T01:38:03;10.10;99.90
3758;DHT22;1894;51.038;13.692;2023-06-05T01:40:34;10.10;99.90
3758;DHT22;1894;51.038;13.692;2023-06-05T01:43:03;10.20;99.90
3758;DHT22;1894;51.038;13.692;2023-06-05T01:45:33;10.30;99.90
3758;DHT22;1894;51.038;13.692;2023-06-05T01:48:00;10.30;99.90
3758;DHT22;1894;51.038;13.692;2023-06-05T01:50:33;10.30;99.90
3758;DHT22;1894;51.038;13.692;2023-06-05T01:53:01;10.30;99.90
3758;DHT22;1894;51.038;13.692;2023-06-05T01:55:29;10.30;99.90
3758;DHT22;1894;51.038;13.692;2023-06-05T01:57:56;10.30;99.90
3758;DHT22;1894;51.038;13.692;2023-06-05T02:00:23;10.30;99.90
3758;DHT22;1894;51.038;13.692;2023-06-05T02:02:51;10.20;99.90
3758;DHT22;1894;51.038;13.692;2023-06-05T02:05:18;10.20;99.90
3758;DHT22;1894;51.038;13.692;2023-06-05T02:07:48;10.10;99.90
3758;DHT22;1894;51.038;13.692;2023-06-05T02:10:20;10.10;99.90
3758;DHT22;1894;51.038;13.692;2023-06-05T02:12:47;10.10;99.90
3758;DHT22;1894;51.038;13.692;2023-06-05T02:15:14;10.10;99.90
3758;DHT22;1894;51.038;13.692;2023-06-05T02:17:43;10.10;99.90
3758;DHT22;1894;51.038;13.692;2023-06-05T02:20:19;10.20;99.90
3758;DHT22;1894;51.038;13.692;2023-06-05T02:22:46;10.30;99.90
3758;DHT22;1894;51.038;13.692;2023-06-05T02:25:16;10.40;99.90
3758;DHT22;1894;51.038;13.692;2023-06-05T02:27:44;10.40;99.90
3758;DHT22;1894;51.038;13.692;2023-06-05T02:30:11;10.30;99.90
3758;DHT22;1894;51.038;13.692;2023-06-05T02:32:39;10.30;99.90
3758;DHT22;1894;51.038;13.692;2023-06-05T02:35:13;10.30;99.90
3758;DHT22;1894;51.038;13.692;2023-06-05T02:37:41;10.30;99.90
3758;DHT22;1894;51.038;13.692;2023-06-05T02:40:13;10.20;99.90
3758;DHT22;1894;51.038;13.692;2023-06-05T02:42:41;10.30;99.90
3758;DHT22;1894;51.038;13.692;2023-06-05T02:45:08;10.20;99.90
3758;DHT22;1894;51.038;13.692;2023-06-05T02:47:37;10.20;99.90
3758;DHT22;1894;51.038;13.692;2023-06-05T02:50:06;10.20;99.90
3758;DHT22;1894;51.038;13.692;2023-06-05T02:52:37;10.10;99.90
3758;DHT22;1894;51.038;13.692;2023-06-05T02:55:14;10.10;99.90
3758;DHT22;1894;51.038;13.692;2023-06-05T02:57:43;10.00;99.90
3758;DHT22;1894;51.038;13.692;2023-06-05T03:00:17;10.10;99.90
3758;DHT22;1894;51.038;13.692;2023-06-05T03:02:50;10.10;99.90
3758;DHT22;1894;51.038;13.692;2023-06-05T03:05:21;10.20;99.90
3758;DHT22;1894;51.038;13.692;2023-06-05T03:07:56;10.10;99.90
3758;DHT22;1894;51.038;13.692;2023-06-05T03:10:23;10.10;99.90
3758;DHT22;1894;51.038;13.692;2023-06-05T03:12:51;10.10;99.90
3758;DHT22;1894;51.038;13.692;2023-06-05T03:15:18;9.90;99.90
3758;DHT22;1894;51.038;13.692;2023-06-05T03:17:48;10.00;99.90
3758;DHT22;1894;51.038;13.692;2023-06-05T03:20:18;10.10;99.90
3758;DHT22;1894;51.038;13.692;2023-06-05T03:22:46;10.30;99.90
3758;DHT22;1894;51.038;13.692;2023-06-05T03:25:14;10.30;99.90
3758;DHT22;1894;51.038;13.692;2023-06-05T03:27:43;10.30;99.90
3758;DHT22;1894;51.038;13.692;2023-06-05T03:30:12;10.20;99.90
3758;DHT22;1894;51.038;13.692;2023-06-05T03:32:47;10.20;99.90
3758;DHT22;1894;51.038;13.692;2023-06-05T03:35:15;10.30;99.90
3758;DHT22;1894;51.038;13.692;2023-06-05T03:37:44;10.40;99.90
3758;DHT22;1894;51.038;13.692;2023-06-05T03:40:12;10.50;99.90
3758;DHT22;1894;51.038;13.692;2023-06-05T03:42:40;10.50;99.90
3758;DHT22;1894;51.038;13.692;2023-06-05T03:45:11;10.60;99.90
3758;DHT22;1894;51.038;13.692;2023-06-05T03:47:39;10.60;99.90
3758;DHT22;1894;51.038;13.692;2023-06-05T03:50:10;10.70;99.90
3758;DHT22;1894;51.038;13.692;2023-06-05T03:52:41;10.80;99.90
3758;DHT22;1894;51.038;13.692;2023-06-05T03:55:08;10.90;99.90
3758;DHT22;1894;51.038;13.692;2023-06-05T03:57:37;11.00;99.90
3758;DHT22;1894;51.038;13.692;2023-06-05T04:00:07;11.10;99.90
3758;DHT22;1894;51.038;13.692;2023-06-05T04:02:42;11.10;99.90
3758;DHT22;1894;51.038;13.692;2023-06-05T04:05:14;11.20;99.90
3758;DHT22;1894;51.038;13.692;2023-06-05T04:07:41;11.30;99.90
3758;DHT22;1894;51.038;13.692;2023-06-05T04:10:09;11.40;99.90
3758;DHT22;1894;51.038;13.692;2023-06-05T04:12:37;11.50;99.90
3758;DHT22;1894;51.038;13.692;2023-06-05T04:15:06;11.70;99.90
3758;DHT22;1894;51.038;13.692;2023-06-05T04:17:34;11.90;99.90
3758;DHT22;1894;51.038;13.692;2023-06-05T04:20:01;11.80;99.90
3758;DHT22;1894;51.038;13.692;2023-06-05T04:22:28;11.80;99.90
3758;DHT22;1894;51.038;13.692;2023-06-05T04:24:56;11.90;99.90
3758;DHT22;1894;51.038;13.692;2023-06-05T04:27:23;12.30;99.90
3758;DHT22;1894;51.038;13.692;2023-06-05T04:29:55;12.60;99.90
3758;DHT22;1894;51.038;13.692;2023-06-05T04:32:23;12.50;99.90
3758;DHT22;1894;51.038;13.692;2023-06-05T04:34:50;12.70;99.90
3758;DHT22;1894;51.038;13.692;2023-06-05T04:37:19;12.60;99.90
3758;DHT22;1894;51.038;13.692;2023-06-05T04:39:47;12.80;99.90
3758;DHT22;1894;51.038;13.692;2023-06-05T04:42:15;13.20;99.90
3758;DHT22;1894;51.038;13.692;2023-06-05T04:44:57;13.40;99.90
3758;DHT22;1894;51.038;13.692;2023-06-05T04:47:26;13.40;99.90
3758;DHT22;1894;51.038;13.692;2023-06-05T04:49:53;13.40;99.90
3758;DHT22;1894;51.038;13.692;2023-06-05T04:52:22;13.30;99.90
3758;DHT22;1894;51.038;13.692;2023-06-05T04:54:51;13.50;99.90
3758;DHT22;1894;51.038;13.692;2023-06-05T04:57:18;13.40;99.90
3758;DHT22;1894;51.038;13.692;2023-06-05T04:59:46;13.60;99.90
3758;DHT22;1894;51.038;13.692;2023-06-05T05:02:15;13.70;99.90
3758;DHT22;1894;51.038;13.692;2023-06-05T05:04:44;13.70;99.90
3758;DHT22;1894;51.038;13.692;2023-06-05T05:07:11;13.80;99.90
3758;DHT22;1894;51.038;13.692;2023-06-05T05:09:44;13.70;99.90
3758;DHT22;1894;51.038;13.692;2023-06-05T05:12:12;13.70;99.90
3758;DHT22;1894;51.038;13.692;2023-06-05T05:14:39;13.80;99.90
3758;DHT22;1894;51.038;13.692;2023-06-05T05:17:09;13.70;99.90
3758;DHT22;1894;51.038;13.692;2023-06-05T05:19:36;13.60;99.90
3758;DHT22;1894;51.038;13.692;2023-06-05T05:22:08;13.70;99.90
3758;DHT22;1894;51.038;13.692;2023-06-05T05:24:35;13.80;99.90
3758;DHT22;1894;51.038;13.692;2023-06-05T05:27:03;13.90;99.90
3758;DHT22;1894;51.038;13.692;2023-06-05T05:29:30;14.30;99.40
3758;DHT22;1894;51.038;13.692;2023-06-05T05:32:01;14.60;98.50
3758;DHT22;1894;51.038;13.692;2023-06-05T05:34:28;14.70;97.80
3758;DHT22;1894;51.038;13.692;2023-06-05T05:36:55;14.80;98.30
3758;DHT22;1894;51.038;13.692;2023-06-05T05:39:23;14.80;97.80
3758;DHT22;1894;51.038;13.692;2023-06-05T05:41:53;15.10;97.10
3758;DHT22;1894;51.038;13.692;2023-06-05T05:44:20;15.00;95.90
3758;DHT22;1894;51.038;13.692;2023-06-05T05:46:47;15.00;96.00
3758;DHT22;1894;51.038;13.692;2023-06-05T05:49:14;15.20;95.90
3758;DHT22;1894;51.038;13.692;2023-06-05T05:51:41;15.60;93.70
3758;DHT22;1894;51.038;13.692;2023-06-05T05:54:08;16.00;92.40
3758;DHT22;1894;51.038;13.692;2023-06-05T05:56:35;16.00;93.70
3758;DHT22;1894;51.038;13.692;2023-06-05T05:59:03;16.00;94.00
3758;DHT22;1894;51.038;13.692;2023-06-05T06:01:30;16.10;92.90
3758;DHT22;1894;51.038;13.692;2023-06-05T06:03:59;16.40;92.50
3758;DHT22;1894;51.038;13.692;2023-06-05T06:06:26;16.40;92.90
3758;DHT22;1894;51.038;13.692;2023-06-05T06:08:53;16.60;92.30
3758;DHT22;1894;51.038;13.692;2023-06-05T06:11:20;16.70;91.50
3758;DHT22;1894;51.038;13.692;2023-06-05T06:13:47;16.90;90.40
3758;DHT22;1894;51.038;13.692;2023-06-05T06:16:15;17.00;90.70
3758;DHT22;1894;51.038;13.692;2023-06-05T06:18:43;17.10;89.50
3758;DHT22;1894;51.038;13.692;2023-06-05T06:21:11;17.00;89.60
3758;DHT22;1894;51.038;13.692;2023-06-05T06:23:38;17.00;89.40
3758;DHT22;1894;51.038;13.692;2023-06-05T06:26:05;17.00;89.60
3758;DHT22;1894;51.038;13.692;2023-06-05T06:28:33;16.80;90.30
3758;DHT22;1894;51.038;13.692;2023-06-05T06:31:00;16.60;90.30
3758;DHT22;1894;51.038;13.692;2023-06-05T06:33:28;16.90;90.90
3758;DHT22;1894;51.038;13.692;2023-06-05T06:35:56;17.30;90.00
3758;DHT22;1894;51.038;13.692;2023-06-05T06:38:25;17.50;89.80
3758;DHT22;1894;51.038;13.692;2023-06-05T06:40:57;17.80;87.60
3758;DHT22;1894;51.038;13.692;2023-06-05T06:43:25;17.80;86.40
3758;DHT22;1894;51.038;13.692;2023-06-05T06:46:03;18.00;83.70
3758;DHT22;1894;51.038;13.692;2023-06-05T06:48:31;18.30;82.50
3758;DHT22;1894;51.038;13.692;2023-06-05T06:50:59;18.50;81.00
3758;DHT22;1894;51.038;13.692;2023-06-05T06:53:27;18.60;81.10
3758;DHT22;1894;51.038;13.692;2023-06-05T06:55:54;18.90;79.20
3758;DHT22;1894;51.038;13.692;2023-06-05T06:58:21;19.20;76.80
3758;DHT22;1894;51.038;13.692;2023-06-05T07:00:48;19.30;76.50
3758;DHT22;1894;51.038;13.692;2023-06-05T07:03:16;19.40;76.30
3758;DHT22;1894;51.038;13.692;2023-06-05T07:05:43;19.80;76.10
3758;DHT22;1894;51.038;13.692;2023-06-05T07:08:10;20.20;73.60
3758;DHT22;1894;51.038;13.692;2023-06-05T07:10:39;20.30;69.60
3758;DHT22;1894;51.038;13.692;2023-06-05T07:13:06;20.30;70.50
3758;DHT22;1894;51.038;13.692;2023-06-05T07:15:33;20.60;69.40
3758;DHT22;1894;51.038;13.692;2023-06-05T07:18:00;20.70;69.30
3758;DHT22;1894;51.038;13.692;2023-06-05T07:20:28;20.80;68.10
3758;DHT22;1894;51.038;13.692;2023-06-05T07:22:55;20.60;68.90
3758;DHT22;1894;51.038;13.692;2023-06-05T07:25:22;20.80;68.10
3758;DHT22;1894;51.038;13.692;2023-06-05T07:27:51;20.60;69.50
3758;DHT22;1894;51.038;13.692;2023-06-05T07:30:19;20.70;69.40
3758;DHT22;1894;51.038;13.692;2023-06-05T07:32:46;20.80;69.10
3758;DHT22;1894;51.038;13.692;2023-06-05T07:35:13;20.60;70.80
3758;DHT22;1894;51.038;13.692;2023-06-05T07:37:43;20.60;70.60
3758;DHT22;1894;51.038;13.692;2023-06-05T07:40:10;21.00;68.90
3758;DHT22;1894;51.038;13.692;2023-06-05T07:42:38;21.40;68.10
3758;DHT22;1894;51.038;13.692;2023-06-05T07:45:05;21.50;66.90
3758;DHT22;1894;51.038;13.692;2023-06-05T07:47:32;21.60;66.90
3758;DHT22;1894;51.038;13.692;2023-06-05T07:50:01;21.90;66.30
3758;DHT22;1894;51.038;13.692;2023-06-05T07:52:30;22.00;65.70
3758;DHT22;1894;51.038;13.692;2023-06-05T07:54:58;22.10;65.00
3758;DHT22;1894;51.038;13.692;2023-06-05T07:57:25;21.90;65.20
3758;DHT22;1894;51.038;13.692;2023-06-05T07:59:52;22.20;64.90
3758;DHT22;1894;51.038;13.692;2023-06-05T08:02:21;22.30;65.80
3758;DHT22;1894;51.038;13.692;2023-06-05T08:04:48;22.30;64.90
3758;DHT22;1894;51.038;13.692;2023-06-05T08:07:15;22.10;64.30
3758;DHT22;1894;51.038;13.692;2023-06-05T08:09:42;21.60;65.20
3758;DHT22;1894;51.038;13.692;2023-06-05T08:12:10;22.00;66.40
3758;DHT22;1894;51.038;13.692;2023-06-05T08:14:37;22.20;66.30
3758;DHT22;1894;51.038;13.692;2023-06-05T08:17:05;22.10;65.40
3758;DHT22;1894;51.038;13.692;2023-06-05T08:19:32;22.10;64.80
3758;DHT22;1894;51.038;13.692;2023-06-05T08:21:59;22.30;64.60
3758;DHT22;1894;51.038;13.692;2023-06-05T08:24:27;22.80;63.60
3758;DHT22;1894;51.038;13.692;2023-06-05T08:26:56;23.00;62.40
3758;DHT22;1894;51.038;13.692;2023-06-05T08:29:23;23.30;62.30
3758;DHT22;1894;51.038;13.692;2023-06-05T08:31:50;23.50;62.10
3758;DHT22;1894;51.038;13.692;2023-06-05T08:34:17;23.80;62.50
3758;DHT22;1894;51.038;13.692;2023-06-05T08:36:44;24.00;60.10
3758;DHT22;1894;51.038;13.692;2023-06-05T08:39:11;24.30;58.70
3758;DHT22;1894;51.038;13.692;2023-06-05T08:41:40;23.90;58.80
3758;DHT22;1894;51.038;13.692;2023-06-05T08:44:11;24.10;59.80
3758;DHT22;1894;51.038;13.692;2023-06-05T08:46:39;24.60;59.00
3758;DHT22;1894;51.038;13.692;2023-06-05T08:49:10;24.70;57.70
3758;DHT22;1894;51.038;13.692;2023-06-05T08:51:39;24.80;57.00
3758;DHT22;1894;51.038;13.692;2023-06-05T08:54:09;24.70;58.80
3758;DHT22;1894;51.038;13.692;2023-06-05T08:56:41;24.90;56.90
3758;DHT22;1894;51.038;13.692;2023-06-05T08:59:10;24.80;57.90
3758;DHT22;1894;51.038;13.692;2023-06-05T09:01:42;24.60;59.10
3758;DHT22;1894;51.038;13.692;2023-06-05T09:04:11;24.90;57.10
3758;DHT22;1894;51.038;13.692;2023-06-05T09:06:38;25.10;57.10
3758;DHT22;1894;51.038;13.692;2023-06-05T09:09:07;24.60;58.60
3758;DHT22;1894;51.038;13.692;2023-06-05T09:11:34;24.50;59.70
3758;DHT22;1894;51.038;13.692;2023-06-05T09:14:03;24.40;59.30
3758;DHT22;1894;51.038;13.692;2023-06-05T09:16:42;24.70;59.40
3758;DHT22;1894;51.038;13.692;2023-06-05T09:19:11;24.70;60.50
3758;DHT22;1894;51.038;13.692;2023-06-05T09:21:38;24.30;62.70
3758;DHT22;1894;51.038;13.692;2023-06-05T09:24:13;24.70;60.50
3758;DHT22;1894;51.038;13.692;2023-06-05T09:29:29;24.80;60.90
3758;DHT22;1894;51.038;13.692;2023-06-05T09:31:58;25.10;61.70
3758;DHT22;1894;51.038;13.692;2023-06-05T09:34:33;24.80;63.90
3758;DHT22;1894;51.038;13.692;2023-06-05T09:37:05;25.00;62.30
3758;DHT22;1894;51.038;13.692;2023-06-05T09:39:34;24.90;61.90
3758;DHT22;1894;51.038;13.692;2023-06-05T09:42:02;25.20;61.10
3758;DHT22;1894;51.038;13.692;2023-06-05T09:44:30;25.20;61.30
3758;DHT22;1894;51.038;13.692;2023-06-05T09:46:58;25.60;61.40
3758;DHT22;1894;51.038;13.692;2023-06-05T09:49:46;25.70;59.60
3758;DHT22;1894;51.038;13.692;2023-06-05T09:52:14;25.70;59.30
3758;DHT22;1894;51.038;13.692;2023-06-05T09:54:43;25.40;62.40
3758;DHT22;1894;51.038;13.692;2023-06-05T09:57:15;25.30;59.90
3758;DHT22;1894;51.038;13.692;2023-06-05T09:59:50;25.50;61.50
3758;DHT22;1894;51.038;13.692;2023-06-05T10:02:20;25.60;62.50
3758;DHT22;1894;51.038;13.692;2023-06-05T10:04:59;25.90;62.10
3758;DHT22;1894;51.038;13.692;2023-06-05T10:07:27;25.80;58.60
3758;DHT22;1894;51.038;13.692;2023-06-05T10:09:57;25.50;59.90
3758;DHT22;1894;51.038;13.692;2023-06-05T10:12:24;25.80;61.00
3758;DHT22;1894;51.038;13.692;2023-06-05T10:14:55;26.10;58.50
3758;DHT22;1894;51.038;13.692;2023-06-05T10:17:23;26.30;57.00
3758;DHT22;1894;51.038;13.692;2023-06-05T10:19:51;26.80;56.80
3758;DHT22;1894;51.038;13.692;2023-06-05T10:22:18;27.70;56.20
3758;DHT22;1894;51.038;13.692;2023-06-05T10:24:54;27.80;54.70
3758;DHT22;1894;51.038;13.692;2023-06-05T10:30:44;27.70;53.10
3758;DHT22;1894;51.038;13.692;2023-06-05T10:36:35;27.90;53.10
3758;DHT22;1894;51.038;13.692;2023-06-05T10:39:10;28.50;51.00
3758;DHT22;1894;51.038;13.692;2023-06-05T10:41:39;27.60;52.40
3758;DHT22;1894;51.038;13.692;2023-06-05T10:44:06;27.20;53.10
3758;DHT22;1894;51.038;13.692;2023-06-05T10:46:35;27.30;51.70
3758;DHT22;1894;51.038;13.692;2023-06-05T10:51:42;27.20;51.10
3758;DHT22;1894;51.038;13.692;2023-06-05T10:54:12;27.70;50.70
3758;DHT22;1894;51.038;13.692;2023-06-05T10:56:52;27.80;49.00
3758;DHT22;1894;51.038;13.692;2023-06-05T10:59:28;27.80;49.90
3758;DHT22;1894;51.038;13.692;2023-06-05T11:07:22;28.00;49.40
3758;DHT22;1894;51.038;13.692;2023-06-05T11:15:06;28.80;46.70
3758;DHT22;1894;51.038;13.692;2023-06-05T11:17:45;28.90;44.60
3758;DHT22;1894;51.038;13.692;2023-06-05T11:25:29;28.40;44.70
3758;DHT22;1894;51.038;13.692;2023-06-05T11:28:03;29.00;47.10
3758;DHT22;1894;51.038;13.692;2023-06-05T11:30:42;28.60;46.90
3758;DHT22;1894;51.038;13.692;2023-06-05T11:33:16;28.60;44.10
3758;DHT22;1894;51.038;13.692;2023-06-05T11:35:46;28.20;44.70
3758;DHT22;1894;51.038;13.692;2023-06-05T11:38:17;28.30;46.30
3758;DHT22;1894;51.038;13.692;2023-06-05T11:40:49;29.00;45.30
3758;DHT22;1894;51.038;13.692;2023-06-05T11:43:16;29.20;43.80
3758;DHT22;1894;51.038;13.692;2023-06-05T11:48:18;28.50;44.10
3758;DHT22;1894;51.038;13.692;2023-06-05T11:53:24;29.60;42.00
3758;DHT22;1894;51.038;13.692;2023-06-05T11:55:52;30.40;42.40
3758;DHT22;1894;51.038;13.692;2023-06-05T11:58:24;30.00;40.80
3758;DHT22;1894;51.038;13.692;2023-06-05T12:00:53;30.90;39.40
3758;DHT22;1894;51.038;13.692;2023-06-05T12:03:30;31.50;39.10
3758;DHT22;1894;51.038;13.692;2023-06-05T12:06:01;30.80;37.20
3758;DHT22;1894;51.038;13.692;2023-06-05T12:08:30;30.80;37.70
3758;DHT22;1894;51.038;13.692;2023-06-05T12:11:01;31.40;36.60
3758;DHT22;1894;51.038;13.692;2023-06-05T12:16:17;31.80;37.30
3758;DHT22;1894;51.038;13.692;2023-06-05T12:18:45;32.60;34.10
3758;DHT22;1894;51.038;13.692;2023-06-05T12:21:23;32.40;34.10
3758;DHT22;1894;51.038;13.692;2023-06-05T12:23:51;31.40;35.20
3758;DHT22;1894;51.038;13.692;2023-06-05T12:26:19;31.70;35.20
3758;DHT22;1894;51.038;13.692;2023-06-05T12:28:46;31.20;33.60
3758;DHT22;1894;51.038;13.692;2023-06-05T12:31:36;32.00;33.80
3758;DHT22;1894;51.038;13.692;2023-06-05T12:34:06;34.70;31.80
3758;DHT22;1894;51.038;13.692;2023-06-05T12:36:40;35.90;30.10
3758;DHT22;1894;51.038;13.692;2023-06-05T12:39:11;36.20;28.50
3758;DHT22;1894;51.038;13.692;2023-06-05T12:41:40;36.50;29.60
3758;DHT22;1894;51.038;13.692;2023-06-05T12:44:07;34.30;30.20
3758;DHT22;1894;51.038;13.692;2023-06-05T12:46:35;36.80;29.40
3758;DHT22;1894;51.038;13.692;2023-06-05T12:49:04;35.00;30.30
3758;DHT22;1894;51.038;13.692;2023-06-05T12:51:32;37.60;28.60
3758;DHT22;1894;51.038;13.692;2023-06-05T12:53:59;38.70;26.80
3758;DHT22;1894;51.038;13.692;2023-06-05T12:56:27;39.70;25.00
3758;DHT22;1894;51.038;13.692;2023-06-05T12:58:57;40.30;24.50
3758;DHT22;1894;51.038;13.692;2023-06-05T13:01:25;41.00;23.80
3758;DHT22;1894;51.038;13.692;2023-06-05T13:03:52;42.70;21.30
3758;DHT22;1894;51.038;13.692;2023-06-05T13:06:20;41.80;21.50
3758;DHT22;1894;51.038;13.692;2023-06-05T13:08:47;40.30;22.30
3758;DHT22;1894;51.038;13.692;2023-06-05T13:11:15;39.80;22.40
3758;DHT22;1894;51.038;13.692;2023-06-05T13:13:42;38.10;23.10
3758;DHT22;1894;51.038;13.692;2023-06-05T13:16:10;36.00;25.00
3758;DHT22;1894;51.038;13.692;2023-06-05T13:18:38;35.10;25.90
3758;DHT22;1894;51.038;13.692;2023-06-05T13:21:06;33.40;27.10
3758;DHT22;1894;51.038;13.692;2023-06-05T13:23:33;31.40;28.40
3758;DHT22;1894;51.038;13.692;2023-06-05T13:26:01;30.50;31.00
3758;DHT22;1894;51.038;13.692;2023-06-05T13:28:29;30.40;31.70
3758;DHT22;1894;51.038;13.692;2023-06-05T13:30:57;29.80;31.60
3758;DHT22;1894;51.038;13.692;2023-06-05T13:33:24;29.70;31.20
3758;DHT22;1894;51.038;13.692;2023-06-05T13:35:54;30.10;31.50
3758;DHT22;1894;51.038;13.692;2023-06-05T13:38:21;29.80;31.80
3758;DHT22;1894;51.038;13.692;2023-06-05T13:40:49;29.50;32.30
3758;DHT22;1894;51.038;13.692;2023-06-05T13:43:19;29.90;32.00
3758;DHT22;1894;51.038;13.692;2023-06-05T13:45:46;30.50;31.90
3758;DHT22;1894;51.038;13.692;2023-06-05T13:48:13;31.10;31.00
3758;DHT22;1894;51.038;13.692;2023-06-05T13:50:40;31.50;30.20
3758;DHT22;1894;51.038;13.692;2023-06-05T13:53:08;32.40;29.80
3758;DHT22;1894;51.038;13.692;2023-06-05T13:55:35;32.80;28.60
3758;DHT22;1894;51.038;13.692;2023-06-05T13:58:03;34.30;28.10
3758;DHT22;1894;51.038;13.692;2023-06-05T14:00:31;34.50;27.40
3758;DHT22;1894;51.038;13.692;2023-06-05T14:02:58;34.50;27.50
3758;DHT22;1894;51.038;13.692;2023-06-05T14:05:26;34.90;27.90
3758;DHT22;1894;51.038;13.692;2023-06-05T14:07:56;35.20;26.60
3758;DHT22;1894;51.038;13.692;2023-06-05T14:10:24;33.80;27.90
3758;DHT22;1894;51.038;13.692;2023-06-05T14:12:52;32.70;28.00
3758;DHT22;1894;51.038;13.692;2023-06-05T14:15:20;32.10;28.30
3758;DHT22;1894;51.038;13.692;2023-06-05T14:17:50;31.70;29.40
3758;DHT22;1894;51.038;13.692;2023-06-05T14:20:18;34.40;27.70
3758;DHT22;1894;51.038;13.692;2023-06-05T14:22:46;34.90;26.10
3758;DHT22;1894;51.038;13.692;2023-06-05T14:25:13;33.40;26.80
3758;DHT22;1894;51.038;13.692;2023-06-05T14:27:40;31.50;28.70
3758;DHT22;1894;51.038;13.692;2023-06-05T14:30:08;30.80;29.60
3758;DHT22;1894;51.038;13.692;2023-06-05T14:32:35;30.20;30.00
3758;DHT22;1894;51.038;13.692;2023-06-05T14:35:03;29.50;30.70
3758;DHT22;1894;51.038;13.692;2023-06-05T14:37:30;29.20;31.20
3758;DHT22;1894;51.038;13.692;2023-06-05T14:39:58;28.90;31.10
3758;DHT22;1894;51.038;13.692;2023-06-05T14:42:25;28.20;32.30
3758;DHT22;1894;51.038;13.692;2023-06-05T14:44:52;28.00;34.50
3758;DHT22;1894;51.038;13.692;2023-06-05T14:47:19;28.00;33.70
3758;DHT22;1894;51.038;13.692;2023-06-05T14:49:47;27.40;34.90
3758;DHT22;1894;51.038;13.692;2023-06-05T14:52:14;27.20;35.50
3758;DHT22;1894;51.038;13.692;2023-06-05T14:54:41;27.10;35.60
3758;DHT22;1894;51.038;13.692;2023-06-05T14:57:22;27.20;35.90
3758;DHT22;1894;51.038;13.692;2023-06-05T14:59:49;27.10;36.10
3758;DHT22;1894;51.038;13.692;2023-06-05T15:02:16;26.80;36.50
3758;DHT22;1894;51.038;13.692;2023-06-05T15:04:49;26.60;37.30
3758;DHT22;1894;51.038;13.692;2023-06-05T15:07:19;26.40;37.40
3758;DHT22;1894;51.038;13.692;2023-06-05T15:09:48;26.00;38.80
3758;DHT22;1894;51.038;13.692;2023-06-05T15:12:15;26.00;38.50
3758;DHT22;1894;51.038;13.692;2023-06-05T15:14:42;26.00;38.30
3758;DHT22;1894;51.038;13.692;2023-06-05T15:17:09;26.00;38.70
3758;DHT22;1894;51.038;13.692;2023-06-05T15:19:37;25.70;39.20
3758;DHT22;1894;51.038;13.692;2023-06-05T15:22:04;25.60;40.10
3758;DHT22;1894;51.038;13.692;2023-06-05T15:24:33;25.40;40.80
3758;DHT22;1894;51.038;13.692;2023-06-05T15:27:00;25.30;40.70
3758;DHT22;1894;51.038;13.692;2023-06-05T15:29:28;25.30;40.90
3758;DHT22;1894;51.038;13.692;2023-06-05T15:31:55;25.20;40.90
3758;DHT22;1894;51.038;13.692;2023-06-05T15:34:37;25.20;40.80
3758;DHT22;1894;51.038;13.692;2023-06-05T15:37:06;25.00;41.70
3758;DHT22;1894;51.038;13.692;2023-06-05T15:39:33;25.10;41.50
3758;DHT22;1894;51.038;13.692;2023-06-05T15:42:00;24.80;41.70
3758;DHT22;1894;51.038;13.692;2023-06-05T15:44:30;24.70;41.90
3758;DHT22;1894;51.038;13.692;2023-06-05T15:46:57;24.60;42.50
3758;DHT22;1894;51.038;13.692;2023-06-05T15:49:24;24.70;43.10
3758;DHT22;1894;51.038;13.692;2023-06-05T15:51:51;24.80;42.70
3758;DHT22;1894;51.038;13.692;2023-06-05T15:54:18;24.70;42.50
3758;DHT22;1894;51.038;13.692;2023-06-05T15:57:06;24.50;42.90
3758;DHT22;1894;51.038;13.692;2023-06-05T15:59:33;24.70;43.10
3758;DHT22;1894;51.038;13.692;2023-06-05T16:02:02;24.70;43.40
3758;DHT22;1894;51.038;13.692;2023-06-05T16:04:29;24.80;44.20
3758;DHT22;1894;51.038;13.692;2023-06-05T16:06:56;24.60;43.70
3758;DHT22;1894;51.038;13.692;2023-06-05T16:09:23;24.50;44.50
3758;DHT22;1894;51.038;13.692;2023-06-05T16:11:50;24.30;44.40
3758;DHT22;1894;51.038;13.692;2023-06-05T16:14:17;24.30;44.90
3758;DHT22;1894;51.038;13.692;2023-06-05T16:16:44;24.30;45.00
3758;DHT22;1894;51.038;13.692;2023-06-05T16:19:11;24.30;44.70
3758;DHT22;1894;51.038;13.692;2023-06-05T16:21:38;24.00;44.80
3758;DHT22;1894;51.038;13.692;2023-06-05T16:24:06;23.90;45.50
3758;DHT22;1894;51.038;13.692;2023-06-05T16:26:34;23.80;45.70
3758;DHT22;1894;51.038;13.692;2023-06-05T16:29:01;23.80;46.10
3758;DHT22;1894;51.038;13.692;2023-06-05T16:31:28;23.90;45.70
3758;DHT22;1894;51.038;13.692;2023-06-05T16:33:55;23.70;45.70
3758;DHT22;1894;51.038;13.692;2023-06-05T16:36:22;23.50;46.80